Time;durP1;ratioP1;P1;durP2;ratioP2;P2;SDS_P1;SDS_P2;PMS_P1;PMS_P2;Temp;Humidity;BMP_temperature;BMP_pressure;BME280_temperature;BME280_humidity;BME280_pressure;Samples;Min_cycle;Max_cycle;Signal;HPM_P1;HPM_P2
2022/11/02 00:01:47;;;;;;;;;;;;;;;8.50;100.00;100056.94;4993649;28;19968;-89
2022/11/02 00:04:12;;;;;;;;;;;;;;;8.52;100.00;100061.28;4993566;28;19918;-89
2022/11/02 00:06:40;;;;;;;;;;;;;;;8.58;100.00;100064.66;4995256;28;19925;-93
2022/11/02 00:09:08;;;;;;;;;;;;;;;8.60;100.00;100065.47;4993413;28;19925;-93
2022/11/02 00:11:36;;;;;;;;;;;;;;;8.65;100.00;100060.91;4992260;28;19949;-88
2022/11/02 00:14:01;;;;;;;;;;;;;;;8.68;100.00;100063.44;4992686;28;19949;-89
2022/11/02 00:16:33;;;;;;;;;;;;;;;8.70;100.00;100062.50;4994285;28;19964;-89
2022/11/02 00:19:00;;;;;;;;;;;;;;;8.70;100.00;100059.00;4994271;28;19926;-87
2022/11/02 04:29:26;;;;;;;;;;;;;;;10.32;100.00;100115.31;5477434;23;19926;-88
2022/11/02 04:31:53;;;;;;;;;;;;;;;10.34;100.00;100116.13;4994141;28;19921;-88
2022/11/02 04:34:19;;;;;;;;;;;;;;;10.35;100.00;100117.84;4993187;28;19914;-88
2022/11/02 04:36:44;;;;;;;;;;;;;;;9.42;100.00;100125.41;4994033;28;19928;-86
2022/11/02 04:39:09;;;;;;;;;;;;;;;8.21;100.00;100134.34;4987930;28;20476;-86
2022/11/02 04:41:40;;;;;;;;;;;;;;;7.72;100.00;100136.50;4992869;28;20008;-86
2022/11/02 04:44:06;;;;;;;;;;;;;;;7.46;100.00;100144.16;4992544;28;20056;-87
2022/11/02 04:46:33;;;;;;;;;;;;;;;7.23;100.00;100154.41;4992568;28;20016;-87
2022/11/02 04:48:58;;;;;;;;;;;;;;;7.06;100.00;100166.16;4992716;28;19929;-86
2022/11/02 04:51:24;;;;;;;;;;;;;;;6.90;100.00;100177.94;4992741;28;19918;-86
2022/11/02 04:53:54;;;;;;;;;;;;;;;6.80;100.00;100179.06;4994116;28;19968;-88
2022/11/02 04:56:20;;;;;;;;;;;;;;;6.72;100.00;100171.31;4992386;28;19968;-87
2022/11/02 04:58:52;;;;;;;;;;;;;;;6.68;100.00;100175.75;4993119;28;19922;-88
2022/11/02 05:01:18;;;;;;;;;;;;;;;6.53;100.00;100178.72;4996694;28;19926;-88
2022/11/02 05:03:47;;;;;;;;;;;;;;;6.51;100.00;100183.13;4996637;28;19917;-87
2022/11/02 05:06:15;;;;;;;;;;;;;;;6.37;100.00;100180.78;4996530;28;19917;-88
2022/11/02 05:08:44;;;;;;;;;;;;;;;6.32;100.00;100188.78;4997623;28;19940;-88
2022/11/02 05:11:12;;;;;;;;;;;;;;;6.21;100.00;100180.22;4997878;28;19925;-88
2022/11/02 05:13:38;;;;;;;;;;;;;;;6.24;100.00;100189.78;4995018;28;20013;-88
2022/11/02 05:16:04;;;;;;;;;;;;;;;6.17;100.00;100184.66;4996431;28;20331;-88
2022/11/02 05:18:29;;;;;;;;;;;;;;;6.08;100.00;100189.19;4996338;28;19918;-88
2022/11/02 05:20:58;;;;;;;;;;;;;;;5.98;100.00;100192.03;4996407;28;20379;-88
2022/11/02 05:23:26;;;;;;;;;;;;;;;5.93;100.00;100195.59;4997187;28;19964;-88
2022/11/02 05:25:57;;;;;;;;;;;;;;;5.87;100.00;100191.31;4996198;28;20012;-88
2022/11/02 05:28:23;;;;;;;;;;;;;;;5.86;100.00;100193.97;4994605;28;19928;-89
2022/11/02 05:30:49;;;;;;;;;;;;;;;5.77;100.00;100194.97;4995946;28;19947;-87
2022/11/02 05:33:17;;;;;;;;;;;;;;;5.72;100.00;100202.06;4996091;28;19940;-86
2022/11/02 05:35:42;;;;;;;;;;;;;;;5.53;100.00;100201.50;4995829;28;19922;-88
2022/11/02 05:38:08;;;;;;;;;;;;;;;5.56;100.00;100202.31;4995928;28;19928;-89
2022/11/02 05:40:46;;;;;;;;;;;;;;;;;;;;;
2022/11/02 05:43:19;;;;;;;;;;;;;;;5.35;100.00;100214.03;4995810;28;19928;-86
2022/11/02 08:40:56;;;;;;;;;;;;;;;6.04;100.00;100400.63;5389135;23;19965;-87
2022/11/02 08:43:51;;;;;;;;;;;;;;;6.02;100.00;100415.59;4957092;28;20313;-88
2022/11/02 08:46:16;;;;;;;;;;;;;;;6.00;100.00;100419.09;4965909;28;19924;-87
2022/11/02 08:48:42;;;;;;;;;;;;;;;5.98;100.00;100412.09;4957150;28;20288;-88
2022/11/02 08:51:10;;;;;;;;;;;;;;;5.99;100.00;100416.50;4974446;28;19922;-87
2022/11/02 08:53:38;;;;;;;;;;;;;;;5.99;100.00;100419.13;4957162;28;19961;-88
2022/11/02 08:56:10;;;;;;;;;;;;;;;6.00;100.00;100424.34;4955720;28;19918;-89
2022/11/02 08:58:36;;;;;;;;;;;;;;;6.08;100.00;100426.00;4956958;28;20309;-89
2022/11/02 09:01:03;;;;;;;;;;;;;;;6.05;100.00;100418.16;4956889;28;19925;-89
2022/11/02 09:03:29;;;;;;;;;;;;;;;6.03;100.00;100414.66;4956913;28;19961;-88
2022/11/02 09:06:01;;;;;;;;;;;;;;;6.12;100.00;100417.19;4974279;28;20378;-88
2022/11/02 09:08:29;;;;;;;;;;;;;;;6.09;100.00;100418.06;4956844;28;19925;-89
2022/11/02 09:11:00;;;;;;;;;;;;;;;6.09;100.00;100425.97;4955680;28;19941;-88
2022/11/02 09:13:25;;;;;;;;;;;;;;;6.06;100.00;100425.16;4956791;28;19965;-90
2022/11/02 09:15:54;;;;;;;;;;;;;;;6.08;100.00;100436.53;4957131;28;19926;-88
2022/11/02 09:18:20;;;;;;;;;;;;;;;6.10;100.00;100430.34;4974145;28;20016;-88
2022/11/02 09:20:48;;;;;;;;;;;;;;;6.08;100.00;100440.03;4957439;28;20392;-89
2022/11/02 09:23:40;;;;;;;;;;;;;;;;;;;;;
2022/11/02 09:26:08;;;;;;;;;;;;;;;6.08;100.00;100441.78;4973947;28;19924;-90
2022/11/02 09:28:34;;;;;;;;;;;;;;;6.06;100.00;100446.19;4974116;28;19918;-89
2022/11/02 09:30:59;;;;;;;;;;;;;;;6.11;100.00;100445.25;4957435;28;20361;-88
2022/11/02 09:33:35;;;;;;;;;;;;;;;6.12;100.00;100446.13;4956851;28;19918;-89
2022/11/02 09:36:09;;;;;;;;;;;;;;;6.10;100.00;100451.41;4956741;28;19918;-90
2022/11/02 09:38:37;;;;;;;;;;;;;;;6.14;100.00;100439.97;4956654;28;19985;-90
2022/11/02 09:41:05;;;;;;;;;;;;;;;6.13;100.00;100442.59;4949062;28;19926;-89
2022/11/02 09:43:35;;;;;;;;;;;;;;;6.13;100.00;100450.50;4937321;29;23198;-89
2022/11/02 09:46:08;;;;;;;;;;;;;;;6.11;100.00;100439.09;4939961;29;19923;-89
2022/11/02 09:48:41;;;;;;;;;;;;;;;6.15;100.00;100448.72;4958098;29;19918;-89
2022/11/02 09:51:09;;;;;;;;;;;;;;;6.13;100.00;100450.50;4941187;29;19958;-89
2022/11/02 09:53:54;;;;;;;;;;;;;;;6.06;100.00;100446.19;4940742;29;19918;-89
2022/11/02 09:56:28;;;;;;;;;;;;;;;6.12;100.00;100438.22;4939088;29;20267;-90
2022/11/02 09:59:09;;;;;;;;;;;;;;;6.08;100.00;100442.66;4940784;29;19923;-88
2022/11/02 10:01:56;;;;;;;;;;;;;;;6.07;100.00;100445.31;4940651;29;19918;-90
2022/11/02 10:04:37;;;;;;;;;;;;;;;6.06;100.00;100454.97;4940823;29;19926;-89
2022/11/02 10:07:28;;;;;;;;;;;;;;;6.03;100.00;100452.41;4957758;29;19919;-89
2022/11/02 10:09:59;;;;;;;;;;;;;;;6.02;100.00;100440.13;4939094;29;19925;-88
2022/11/02 10:12:28;;;;;;;;;;;;;;;6.03;100.00;100435.72;4936814;29;20267;-89
2022/11/02 10:15:16;;;;;;;;;;;;;;;6.05;100.00;100436.56;4940562;29;19925;-90
2022/11/02 10:17:46;;;;;;;;;;;;;;;6.09;100.00;100433.00;4927494;29;20005;-90
2022/11/02 10:20:27;;;;;;;;;;;;;;;6.09;100.00;100427.75;4957553;29;19918;-89
2022/11/02 10:23:14;;;;;;;;;;;;;;;6.06;100.00;100433.03;4957571;29;19922;-90
2022/11/02 10:25:42;;;;;;;;;;;;;;;6.06;100.00;100433.03;4939044;29;19921;-89
2022/11/02 10:28:17;;;;;;;;;;;;;;;6.02;100.00;100436.63;4940307;29;20425;-88
2022/11/02 10:30:43;;;;;;;;;;;;;;;6.05;100.00;100433.94;4957326;29;20389;-90
2022/11/02 10:33:28;;;;;;;;;;;;;;;6.00;100.00;100424.34;4940499;29;19922;-89
2022/11/02 10:36:12;;;;;;;;;;;;;;;5.99;100.00;100419.97;4957422;29;19944;-89
2022/11/02 10:39:06;;;;;;;;;;;;;;;6.03;100.00;100417.31;4939924;29;20369;-88
2022/11/02 10:41:31;;;;;;;;;;;;;;;6.02;100.00;100410.31;4910816;29;19922;-89
2022/11/02 10:44:15;;;;;;;;;;;;;;;6.02;100.00;100399.81;4939895;29;20071;-89
2022/11/02 10:46:59;;;;;;;;;;;;;;;6.02;100.00;100400.66;4939853;29;19918;-89
2022/11/02 10:49:50;;;;;;;;;;;;;;;6.03;100.00;100402.41;4940079;29;19918;-89
2022/11/02 10:52:21;;;;;;;;;;;;;;;6.03;100.00;100401.53;4957168;28;19958;-89
2022/11/02 10:54:50;;;;;;;;;;;;;;;6.02;100.00;100400.66;4948438;23;19926;-89
2022/11/02 10:57:21;;;;;;;;;;;;;;;6.03;100.00;100401.53;4957046;28;19933;-88
2022/11/02 11:00:06;;;;;;;;;;;;;;;5.99;100.00;100401.56;4959029;28;19918;-89
2022/11/02 11:02:36;;;;;;;;;;;;;;;6.02;100.00;100405.91;4976516;28;19961;-91
2022/11/02 11:05:12;;;;;;;;;;;;;;;6.05;100.00;100402.34;4959116;28;19918;-90
2022/11/02 11:07:42;;;;;;;;;;;;;;;6.04;100.00;100398.88;4958569;28;20020;-92
2022/11/02 11:10:13;;;;;;;;;;;;;;;6.04;100.00;100405.91;4957684;28;19918;-90
2022/11/02 11:12:41;;;;;;;;;;;;;;;6.02;100.00;100413.81;4975996;28;19929;-92
2022/11/02 11:15:22;;;;;;;;;;;;;;;6.02;100.00;100403.28;4958640;28;20349;-90
2022/11/02 11:17:50;;;;;;;;;;;;;;;6.02;100.00;100405.91;4975962;28;20072;-88
2022/11/02 11:20:32;;;;;;;;;;;;;;;5.99;100.00;100401.56;4975877;28;20388;-87
2022/11/02 11:23:09;;;;;;;;;;;;;;;6.02;100.00;100398.03;4958222;28;19918;-87
2022/11/02 11:25:38;;;;;;;;;;;;;;;6.02;100.00;100403.28;4974609;28;19925;-89
2022/11/02 11:28:33;;;;;;;;;;;;;;;6.02;100.00;100398.03;4958207;28;19968;-88
2022/11/02 11:31:01;;;;;;;;;;;;;;;6.02;100.00;100398.03;4958647;28;19932;-87
2022/11/02 11:33:27;;;;;;;;;;;;;;;6.05;100.00;100397.09;4958048;28;20038;-88
2022/11/02 11:35:53;;;;;;;;;;;;;;;6.04;100.00;100398.88;4958296;28;19972;-89
2022/11/02 11:38:20;;;;;;;;;;;;;;;5.98;100.00;100399.84;4975561;28;20060;-88
2022/11/02 11:40:52;;;;;;;;;;;;;;;5.96;100.00;100385.81;4974146;28;19925;-87
2022/11/02 11:43:23;;;;;;;;;;;;;;;5.98;100.00;100381.44;4958291;28;20297;-87
2022/11/02 11:46:02;;;;;;;;;;;;;;;5.98;100.00;100378.78;4971568;28;20388;-87
2022/11/02 11:48:37;;;;;;;;;;;;;;;5.96;100.00;100380.56;4957989;28;19961;-88
2022/11/02 11:51:02;;;;;;;;;;;;;;;5.99;100.00;100379.66;4975223;28;19960;-86
2022/11/02 11:53:28;;;;;;;;;;;;;;;5.97;100.00;100381.44;4975448;28;20349;-89
2022/11/02 11:55:57;;;;;;;;;;;;;;;5.98;100.00;100377.91;4956347;28;19976;-87
2022/11/02 11:58:25;;;;;;;;;;;;;;;5.99;100.00;100375.25;4975115;28;20358;-87
2022/11/02 12:01:09;;;;;;;;;;;;;;;6.00;100.00;100370.88;4975145;28;20001;-88
2022/11/02 12:04:10;;;;;;;;;;;;;;;5.97;100.00;100374.41;4958489;28;19918;-88
2022/11/02 12:06:55;;;;;;;;;;;;;;;5.98;100.00;100367.38;4880741;29;20018;-88
2022/11/02 12:12:21;;;;;;;;;;;;;;;5.99;100.00;100363.88;4954383;28;20357;-88
2022/11/02 12:15:13;;;;;;;;;;;;;;;5.98;100.00;100368.28;4957689;28;19925;-87
2022/11/02 12:17:45;;;;;;;;;;;;;;;5.99;100.00;100363.88;4973395;28;19928;-87
2022/11/02 12:20:19;;;;;;;;;;;;;;;6.00;100.00;100365.63;4957414;28;19922;-87
2022/11/02 12:22:44;;;;;;;;;;;;;;;5.99;100.00;100348.94;4957407;28;19922;-87
2022/11/02 12:25:30;;;;;;;;;;;;;;;6.00;100.00;100355.09;4973919;28;20320;-89
2022/11/02 12:28:12;;;;;;;;;;;;;;;6.00;100.00;100347.22;4956049;28;19964;-89
2022/11/02 12:31:06;;;;;;;;;;;;;;;6.02;100.00;100339.28;4974711;28;19918;-87
2022/11/02 12:33:48;;;;;;;;;;;;;;;5.97;100.00;100340.22;4940954;28;20420;-88
2022/11/02 12:36:22;;;;;;;;;;;;;;;6.02;100.00;100337.53;4952861;28;19962;-87
2022/11/02 12:42:26;;;;;;;;;;;;;;;5.97;100.00;100340.22;4946935;29;19919;-88
2022/11/02 12:44:59;;;;;;;;;;;;;;;5.95;100.00;100341.97;4952977;29;20005;-89
2022/11/02 12:47:51;;;;;;;;;;;;;;;5.97;100.00;100345.47;4953134;29;19941;-91
2022/11/02 12:50:26;;;;;;;;;;;;;;;5.95;100.00;100344.59;4936988;29;20027;-89
2022/11/02 12:53:12;;;;;;;;;;;;;;;5.94;100.00;100337.59;4936776;29;19926;-87
2022/11/02 12:55:49;;;;;;;;;;;;;;;5.94;100.00;100337.59;4935385;29;19930;-89
2022/11/02 12:58:20;;;;;;;;;;;;;;;5.93;100.00;100322.69;4936818;29;20370;-88
2022/11/02 13:00:50;;;;;;;;;;;;;;;5.92;100.00;100330.59;4946842;28;19919;-89
2022/11/02 13:03:36;;;;;;;;;;;;;;;5.94;100.00;100329.72;4957006;28;19919;-89
2022/11/02 13:06:32;;;;;;;;;;;;;;;5.96;100.00;100325.31;4956974;28;19968;-96
2022/11/02 13:09:11;;;;;;;;;;;;;;;5.91;100.00;100324.50;4974440;28;20396;-89
2022/11/02 13:14:44;;;;;;;;;;;;;;;5.94;100.00;100320.97;4971657;28;20540;-90
2022/11/02 13:17:29;;;;;;;;;;;;;;;5.91;100.00;100324.50;4956940;28;20024;-91
2022/11/02 13:20:05;;;;;;;;;;;;;;;5.92;100.00;100317.47;4974871;28;20440;-87
2022/11/02 13:22:53;;;;;;;;;;;;;;;5.91;100.00;100319.22;4960994;28;19918;-90
2022/11/02 13:25:26;;;;;;;;;;;;;;;5.93;100.00;100311.31;4923808;28;19945;-89
2022/11/02 13:27:56;;;;;;;;;;;;;;;5.94;100.00;100313.94;4977849;28;19918;-89
2022/11/02 13:30:22;;;;;;;;;;;;;;;5.94;100.00;100313.94;4960547;28;19918;-88
2022/11/02 13:32:59;;;;;;;;;;;;;;;5.91;100.00;100313.97;4960570;28;19918;-88
2022/11/02 13:35:45;;;;;;;;;;;;;;;5.91;100.00;100308.72;4978171;28;20401;-94
2022/11/02 13:38:42;;;;;;;;;;;;;;;5.91;100.00;100310.47;4978084;28;19929;-87
2022/11/02 13:41:10;;;;;;;;;;;;;;;5.90;100.00;100306.97;4933928;28;19973;-88
2022/11/02 13:44:05;;;;;;;;;;;;;;;5.88;100.00;100306.13;4977653;28;19973;-87
2022/11/02 13:46:37;;;;;;;;;;;;;;;5.87;100.00;100304.41;4960710;28;19925;-88
2022/11/02 13:49:18;;;;;;;;;;;;;;;5.87;100.00;100293.88;4977359;28;19922;-87
2022/11/02 13:51:46;;;;;;;;;;;;;;;5.88;100.00;100292.97;4977560;28;19918;-88
2022/11/02 13:54:18;;;;;;;;;;;;;;;5.87;100.00;100295.63;4959077;28;19922;-89
2022/11/02 13:56:44;;;;;;;;;;;;;;;5.87;100.00;100296.50;4959926;28;19922;-88
2022/11/02 13:59:20;;;;;;;;;;;;;;;5.88;100.00;100286.84;4976156;28;19940;-89
2022/11/02 14:01:46;;;;;;;;;;;;;;;5.85;100.00;100285.13;4960023;28;19945;-88
2022/11/02 14:04:14;;;;;;;;;;;;;;;5.87;100.00;100285.09;4959812;28;19988;-89
2022/11/02 14:06:54;;;;;;;;;;;;;;;5.86;100.00;100288.66;4977557;28;20013;-93
2022/11/02 14:09:22;;;;;;;;;;;;;;;5.86;100.00;100279.00;4958694;28;20377;-89
2022/11/02 14:11:48;;;;;;;;;;;;;;;5.85;100.00;100274.59;4959701;28;19918;-88
2022/11/02 14:14:23;;;;;;;;;;;;;;;5.86;100.00;100281.63;4976670;28;19990;-89
2022/11/02 14:16:48;;;;;;;;;;;;;;;5.83;100.00;100279.03;4977348;28;20012;-89
2022/11/02 14:19:17;;;;;;;;;;;;;;;5.86;100.00;100276.34;4959583;28;20009;-88
2022/11/02 14:21:45;;;;;;;;;;;;;;;5.82;100.00;100277.28;4977016;28;20280;-88
2022/11/02 14:24:29;;;;;;;;;;;;;;;5.80;100.00;100273.81;4976192;28;19925;-89
2022/11/02 14:26:57;;;;;;;;;;;;;;;5.82;100.00;100275.53;4959527;28;19919;-88
2022/11/02 14:29:49;;;;;;;;;;;;;;;5.81;100.00;100270.31;4960123;28;19919;-95
2022/11/02 14:32:34;;;;;;;;;;;;;;;5.82;100.00;100269.41;4971557;28;19942;-92
2022/11/02 14:35:03;;;;;;;;;;;;;;;5.80;100.00;100271.19;4959249;28;19933;-89
2022/11/02 14:37:57;;;;;;;;;;;;;;;5.79;100.00;100272.06;4977054;28;19918;-92
2022/11/02 14:40:35;;;;;;;;;;;;;;;5.79;100.00;100266.81;4958438;28;19922;-89
2022/11/02 14:43:29;;;;;;;;;;;;;;;;;;;;;
2022/11/02 14:46:26;;;;;;;;;;;;;;;5.74;100.00;100263.38;4977328;28;19924;-92
2022/11/02 14:48:54;;;;;;;;;;;;;;;5.79;100.00;100261.56;4959020;28;19919;-89
2022/11/02 14:51:50;;;;;;;;;;;;;;;5.78;100.00;100259.84;4959271;28;19980;-93
2022/11/02 14:54:17;;;;;;;;;;;;;;;5.74;100.00;100259.00;4952099;28;19937;-89
2022/11/02 15:00:32;;;;;;;;;;;;;;;;;;;;;
2022/11/02 15:03:06;;;;;;;;;;;;;;;5.79;100.00;100240.50;4897992;29;20310;-89
2022/11/02 15:05:35;;;;;;;;;;;;;;;5.78;100.00;100238.78;4897785;29;19920;-89
2022/11/02 15:08:04;;;;;;;;;;;;;;;5.78;100.00;100241.44;4949918;28;19918;-88
2022/11/02 15:10:29;;;;;;;;;;;;;;;5.79;100.00;100235.25;4973935;28;19918;-89
2022/11/02 15:13:18;;;;;;;;;;;;;;;5.79;100.00;100240.50;4959092;28;19925;-89
2022/11/02 15:15:53;;;;;;;;;;;;;;;5.79;100.00;100237.88;4918708;28;20331;-87
2022/11/02 15:18:46;;;;;;;;;;;;;;;5.80;100.00;100237.00;4958484;28;20330;-87
2022/11/02 15:21:16;;;;;;;;;;;;;;;5.77;100.00;100239.69;4975802;28;19925;-90
2022/11/02 15:24:09;;;;;;;;;;;;;;;5.79;100.00;100238.78;4958782;28;19918;-89
2022/11/02 15:26:35;;;;;;;;;;;;;;;5.79;100.00;100237.88;4957533;28;19982;-88
2022/11/02 15:29:18;;;;;;;;;;;;;;;5.74;100.00;100223.94;4975600;28;19918;-89
2022/11/02 15:31:49;;;;;;;;;;;;;;;5.74;100.00;100226.56;4974403;28;19918;-89
2022/11/02 15:34:17;;;;;;;;;;;;;;;5.74;100.00;100230.06;4958176;28;19925;-90
2022/11/02 15:36:43;;;;;;;;;;;;;;;5.80;100.00;100231.75;4975519;28;19974;-89
2022/11/02 15:39:11;;;;;;;;;;;;;;;5.78;100.00;100233.53;4975149;28;19922;-88
2022/11/02 15:41:39;;;;;;;;;;;;;;;5.77;100.00;100232.66;4957573;28;19922;-88
2022/11/02 15:44:04;;;;;;;;;;;;;;;5.78;100.00;100225.66;4975002;28;19924;-89
2022/11/02 15:46:33;;;;;;;;;;;;;;;5.75;100.00;100217.81;4975376;28;20028;-88
2022/11/02 15:48:58;;;;;;;;;;;;;;;5.74;100.00;100216.06;4958044;28;19965;-89
2022/11/02 15:51:31;;;;;;;;;;;;;;;5.73;100.00;100209.94;4957970;28;19972;-89
2022/11/02 15:53:56;;;;;;;;;;;;;;;5.74;100.00;100202.91;4973989;28;19918;-89
2022/11/02 15:56:34;;;;;;;;;;;;;;;5.74;100.00;100195.88;4957102;28;20013;-93
2022/11/02 15:59:36;;;;;;;;;;;;;;;;;;;;;
2022/11/02 16:02:04;;;;;;;;;;;;;;;5.77;100.00;100181.81;4976663;28;19914;-92
2022/11/02 16:04:30;;;;;;;;;;;;;;;5.74;100.00;100185.38;4958053;28;19929;-91
2022/11/02 16:07:08;;;;;;;;;;;;;;;5.71;100.00;100184.56;4968833;23;19926;-90
2022/11/02 16:09:35;;;;;;;;;;;;;;;5.71;100.00;100176.66;4957296;28;20727;-89
2022/11/02 16:12:29;;;;;;;;;;;;;;;5.73;100.00;100172.28;4957824;28;19922;-92
2022/11/02 16:14:58;;;;;;;;;;;;;;;5.75;100.00;100170.47;4934221;29;19922;-90
2022/11/02 16:17:24;;;;;;;;;;;;;;;8.77;100.00;100163.56;4934476;29;19918;-85
2022/11/02 16:19:51;;;;;;;;;;;;;;;7.02;100.00;100168.91;4934327;29;19922;-84
2022/11/02 16:22:21;;;;;;;;;;;;;;;6.44;100.00;100174.50;4931435;29;19977;-85
2022/11/02 16:24:48;;;;;;;;;;;;;;;7.20;100.00;100167.63;4936160;29;20382;-85
2022/11/02 16:27:15;;;;;;;;;;;;;;;6.51;100.00;100162.94;4932941;29;19926;-94
2022/11/02 16:29:41;;;;;;;;;;;;;;;6.23;100.00;100167.88;4925421;29;19927;-85
2022/11/02 16:32:12;;;;;;;;;;;;;;;6.20;100.00;100164.44;4934960;29;20299;-86
2022/11/02 16:34:38;;;;;;;;;;;;;;;6.09;100.00;100165.50;4933060;29;20033;-86
2022/11/02 16:37:04;;;;;;;;;;;;;;;6.05;100.00;100162.94;4934304;29;20006;-89
2022/11/02 16:42:15;;;;;;;;;;;;;;;5.99;100.00;100171.84;4115684;26;20406;-87
2022/11/02 16:44:42;;;;;;;;;;;;;;;5.92;100.00;100165.78;4946905;28;19922;-85
2022/11/02 16:47:07;;;;;;;;;;;;;;;5.90;100.00;100172.81;4957030;28;19918;-86
2022/11/02 16:49:33;;;;;;;;;;;;;;;5.89;100.00;100176.38;4953989;28;19944;-87
2022/11/02 16:52:05;;;;;;;;;;;;;;;5.87;100.00;100170.28;4944305;29;19978;-85
2022/11/02 16:54:33;;;;;;;;;;;;;;;5.85;100.00;100165.91;4968362;28;20240;-86
2022/11/02 16:57:04;;;;;;;;;;;;;;;5.82;100.00;100161.56;4954090;28;19925;-87
2022/11/02 16:59:29;;;;;;;;;;;;;;;5.81;100.00;100165.13;4962604;28;19965;-86
2022/11/02 17:01:59;;;;;;;;;;;;;;;5.82;100.00;100158.94;4952538;28;19988;-85
2022/11/02 17:04:28;;;;;;;;;;;;;;;5.81;100.00;100162.47;4952694;28;20330;-86
2022/11/02 17:06:54;;;;;;;;;;;;;;;5.77;100.00;100147.63;4953299;28;19922;-88
2022/11/02 17:09:19;;;;;;;;;;;;;;;5.80;100.00;100156.34;4953978;28;19926;-86
2022/11/02 17:11:45;;;;;;;;;;;;;;;5.74;100.00;100164.31;4953570;28;19928;-85
2022/11/02 17:14:10;;;;;;;;;;;;;;;5.77;100.00;100171.31;4940001;28;19953;-85
2022/11/02 17:16:54;;;;;;;;;;;;;;;5.75;100.00;100165.22;4969919;28;19926;-86
2022/11/02 17:19:38;;;;;;;;;;;;;;;5.75;100.00;100173.97;4953226;28;20015;-86
2022/11/02 17:22:09;;;;;;;;;;;;;;;5.71;100.00;100169.66;4962871;28;20436;-86
2022/11/02 17:24:35;;;;;;;;;;;;;;;5.71;100.00;100171.41;4932519;28;20335;-86
2022/11/02 17:27:19;;;;;;;;;;;;;;;5.73;100.00;100182.78;4971531;28;20370;-87
2022/11/02 17:29:44;;;;;;;;;;;;;;;5.72;100.00;100178.41;4969007;28;19926;-86
2022/11/02 17:32:14;;;;;;;;;;;;;;;5.73;100.00;100174.91;4970311;28;19969;-85
2022/11/02 17:34:46;;;;;;;;;;;;;;;5.73;100.00;100177.53;4970892;28;19926;-87
2022/11/02 17:37:20;;;;;;;;;;;;;;;5.72;100.00;100176.63;4966006;28;19933;-85
2022/11/02 17:39:45;;;;;;;;;;;;;;;5.67;100.00;100177.63;4940634;28;19973;-85
2022/11/02 17:44:56;;;;;;;;;;;;;;;5.68;100.00;100185.50;4973140;28;20432;-85
2022/11/02 17:47:21;;;;;;;;;;;;;;;5.69;100.00;100184.56;4955560;28;19922;-86
2022/11/02 17:49:46;;;;;;;;;;;;;;;5.73;100.00;100188.03;4956317;28;19922;-86
2022/11/02 17:52:15;;;;;;;;;;;;;;;5.67;100.00;100182.88;4972455;28;19932;-86
2022/11/02 17:54:40;;;;;;;;;;;;;;;5.68;100.00;100192.50;4969604;28;20333;-85
2022/11/02 17:57:11;;;;;;;;;;;;;;;5.67;100.00;100189.00;4954665;28;19929;-85
2022/11/02 17:59:36;;;;;;;;;;;;;;;5.66;100.00;100181.13;4971918;28;19981;-85
2022/11/02 18:02:02;;;;;;;;;;;;;;;5.66;100.00;100178.50;4955870;28;20699;-86
2022/11/02 18:04:27;;;;;;;;;;;;;;;5.60;100.00;100174.19;4956452;28;19977;-85
2022/11/02 18:06:52;;;;;;;;;;;;;;;5.63;100.00;100171.53;4966984;28;20125;-85
2022/11/02 18:09:18;;;;;;;;;;;;;;;5.63;100.00;100172.41;4956931;28;19922;-83
2022/11/02 18:11:44;;;;;;;;;;;;;;;5.68;100.00;100169.72;4975734;28;20021;-88
2022/11/02 18:14:15;;;;;;;;;;;;;;;5.67;100.00;100161.84;4959171;28;20001;-88
2022/11/02 18:16:41;;;;;;;;;;;;;;;5.70;100.00;100167.06;4957305;28;20021;-89
2022/11/02 18:19:06;;;;;;;;;;;;;;;5.70;100.00;100162.66;4957707;28;20398;-85
2022/11/02 18:21:32;;;;;;;;;;;;;;;5.68;100.00;100155.69;4974181;28;20033;-87
2022/11/02 18:24:05;;;;;;;;;;;;;;;5.66;100.00;100160.09;4976327;28;19922;-95
2022/11/02 18:26:30;;;;;;;;;;;;;;;5.60;100.00;100161.06;4971783;28;19924;-88
2022/11/02 18:28:56;;;;;;;;;;;;;;;5.63;100.00;100156.66;4977828;28;19926;-85
2022/11/02 18:31:21;;;;;;;;;;;;;;;5.60;100.00;100158.44;4975980;28;19922;-86
2022/11/02 18:33:47;;;;;;;;;;;;;;;5.60;100.00;100155.81;4975786;28;19922;-85
2022/11/02 18:36:12;;;;;;;;;;;;;;;5.61;100.00;100155.78;4974678;28;19922;-87
2022/11/02 18:38:37;;;;;;;;;;;;;;;5.60;100.00;100150.53;4976634;28;20370;-85
2022/11/02 18:41:26;;;;;;;;;;;;;;;5.55;100.00;100153.28;4974011;28;19932;-85
2022/11/02 18:43:52;;;;;;;;;;;;;;;5.55;100.00;100155.91;4957927;28;19922;-84
2022/11/02 18:46:17;;;;;;;;;;;;;;;5.58;100.00;100153.19;4976326;28;19925;-86
2022/11/02 18:48:42;;;;;;;;;;;;;;;5.55;100.00;100153.28;4975218;28;20338;-85
2022/11/02 18:51:09;;;;;;;;;;;;;;;5.56;100.00;100152.38;4978838;28;19917;-85
2022/11/02 18:53:34;;;;;;;;;;;;;;;5.53;100.00;100148.94;4958775;28;20286;-85
2022/11/02 18:56:03;;;;;;;;;;;;;;;5.55;100.00;100148.03;4966824;28;19929;-86
2022/11/02 18:58:29;;;;;;;;;;;;;;;5.52;100.00;100150.69;4975703;28;20012;-85
2022/11/02 19:00:54;;;;;;;;;;;;;;;5.55;100.00;100153.28;4959479;28;20020;-87
2022/11/02 19:03:19;;;;;;;;;;;;;;;5.52;100.00;100148.06;4975402;28;19929;-86
2022/11/02 19:11:12;;;;;;;;;;;;;;;5.51;100.00;100132.31;4975693;28;19937;-85
2022/11/02 19:13:37;;;;;;;;;;;;;;;5.60;100.00;100125.16;4959017;28;19941;-85
2022/11/02 19:16:03;;;;;;;;;;;;;;;5.62;100.00;100118.09;4965895;28;19928;-86
2022/11/02 19:18:28;;;;;;;;;;;;;;;5.57;100.00;100114.69;4957758;28;19914;-85
2022/11/02 19:20:53;;;;;;;;;;;;;;;5.57;100.00;100113.81;4955647;28;19922;-85
2022/11/02 19:23:19;;;;;;;;;;;;;;;5.59;100.00;100106.75;4957134;28;19918;-86
2022/11/02 19:25:50;;;;;;;;;;;;;;;5.57;100.00;100104.16;4974536;28;19976;-87
2022/11/02 19:28:16;;;;;;;;;;;;;;;5.54;100.00;100104.22;4957761;28;20397;-86
2022/11/02 19:30:41;;;;;;;;;;;;;;;5.50;100.00;100102.53;4962241;28;19933;-86
2022/11/02 19:33:07;;;;;;;;;;;;;;;5.55;100.00;100095.44;4973963;28;20338;-86
2022/11/02 19:35:32;;;;;;;;;;;;;;;5.54;100.00;100096.31;4958301;28;19922;-88
2022/11/02 19:37:57;;;;;;;;;;;;;;;5.51;100.00;100088.50;4958258;28;19929;-85
2022/11/02 19:40:22;;;;;;;;;;;;;;;5.51;100.00;100093.75;4971060;28;19929;-86
2022/11/02 19:42:53;;;;;;;;;;;;;;;5.53;100.00;100104.25;4967271;28;20016;-89
2022/11/02 19:45:18;;;;;;;;;;;;;;;5.51;100.00;100103.41;4948904;28;20009;-87
2022/11/02 19:47:43;;;;;;;;;;;;;;;5.45;100.00;100099.97;4973973;28;20028;-86
2022/11/02 19:50:09;;;;;;;;;;;;;;;5.45;100.00;100101.72;4975538;28;19918;-85
2022/11/02 19:52:45;;;;;;;;;;;;;;;5.46;100.00;100100.84;4953176;28;20292;-95
2022/11/02 19:55:10;;;;;;;;;;;;;;;5.41;100.00;100102.69;4956604;28;20325;-86
2022/11/02 19:57:35;;;;;;;;;;;;;;;5.44;100.00;100102.63;4957390;28;19981;-89
2022/11/02 20:00:01;;;;;;;;;;;;;;;5.43;100.00;100103.53;4966202;28;20293;-87
2022/11/02 20:02:26;;;;;;;;;;;;;;;5.48;100.00;100093.81;4957741;28;19918;-85
2022/11/02 20:04:51;;;;;;;;;;;;;;;5.53;100.00;100093.72;4957654;28;19928;-86
2022/11/02 20:07:16;;;;;;;;;;;;;;;5.49;100.00;100089.41;4955823;28;20281;-88
2022/11/02 20:09:42;;;;;;;;;;;;;;;5.49;100.00;100087.66;4956476;28;19973;-85
2022/11/02 20:12:07;;;;;;;;;;;;;;;5.55;100.00;100090.19;4974005;28;20074;-85
2022/11/02 20:14:33;;;;;;;;;;;;;;;5.48;100.00;100083.28;4955523;28;20293;-87
2022/11/02 20:16:58;;;;;;;;;;;;;;;5.48;100.00;100083.28;4972938;28;19949;-87
2022/11/02 20:19:24;;;;;;;;;;;;;;;5.52;100.00;100084.09;4974095;28;20415;-87
2022/11/02 20:21:49;;;;;;;;;;;;;;;5.51;100.00;100083.25;4972814;28;19930;-87
2022/11/02 20:24:15;;;;;;;;;;;;;;;5.51;100.00;100080.59;4972525;28;19918;-86
2022/11/02 20:26:40;;;;;;;;;;;;;;;5.49;100.00;100074.53;4974275;28;20008;-86
2022/11/02 20:29:06;;;;;;;;;;;;;;;5.48;100.00;100077.19;4973670;28;19918;-85
2022/11/02 20:31:32;;;;;;;;;;;;;;;5.48;100.00;100072.78;4973638;28;19969;-85
2022/11/02 20:33:58;;;;;;;;;;;;;;;5.52;100.00;100079.72;4952795;28;19922;-86